Latest Weather Observations for Bairnsdale

IDV60801

Issued at 6:32 pm EST Tuesday 25 April 2017 (issued every 30 minutes, with the page automatically refreshed every 10 minutes)

About weather observations | Map of weather stations | Latest weather observations for VIC | Other Formats
Station Details ID: 085279 Name: BAIRNSDALE AIRPORT Lat: -37.88 Lon: 147.57 Height: 49.4 m
Data from the previous 72 hours. | See also: Recent months at Bairnsdale
Date/Time
EST
Temp
°C
App
Temp
°C
Dew
Point
°C
Rel
Hum
%
Delta-T
°C
Wind Press
QNH
hPa
Press
MSL
hPa
Rain since
9am
mm
Dir  Spd
km/h
Gust
km/h
Spd
kts
Gust
kts
25/06:30pm 15.4 12.5 12.2 81 1.8 WSW 19 24 10 13 1005.8 1005.8 1.2
25/06:00pm 15.8 14.3 13.1 84 1.5 WSW 13 19 7 10 1005.6 1005.6 1.2
25/05:30pm 15.8 16.0 14.2 90 0.9 SW 6 7 3 4 1005.5 1005.5 1.2
25/05:00pm 16.4 15.2 14.1 86 1.3 SSW 13 19 7 10 1005.3 1005.3 1.2
25/04:30pm 17.1 14.1 13.6 80 2.0 WSW 22 30 12 16 1005.0 1005.0 1.2
25/04:00pm 17.1 12.8 13.2 78 2.2 WSW 28 39 15 21 1004.8 1004.8 1.2
25/03:30pm 17.8 13.2 13.5 76 2.4 WSW 30 43 16 23 1004.5 1004.5 1.2
25/03:00pm 18.7 16.7 15.6 82 1.8 W 20 26 11 14 1004.3 1004.3 1.2
25/02:30pm 17.1 13.2 14.4 84 1.6 WSW 28 35 15 19 1004.0 1004.0 1.2
25/02:00pm 17.3 12.5 14.0 81 1.9 WSW 32 44 17 24 1004.0 1004.0 1.2
25/01:30pm 18.2 13.7 13.7 75 2.6 WSW 30 52 16 28 1004.1 1004.1 1.2
25/01:25pm 19.3 16.7 13.7 70 3.2 W 20 52 11 28 1004.0 1004.0 1.2
25/01:00pm 20.9 20.7 15.7 72 3.1 NNW 11 13 6 7 1003.9 1003.9 1.2
25/12:30pm 21.3 20.8 16.0 72 3.2 NW 13 17 7 9 1004.3 1004.3 1.2
25/12:00pm 18.8 19.5 16.2 85 1.6 N 7 11 4 6 1004.9 1004.9 1.2
25/11:30am 17.9 17.8 16.1 89 1.1 N 11 13 6 7 1005.4 1005.4 1.2
25/11:00am 17.6 17.9 16.1 91 0.9 NNE 9 13 5 7 1005.7 1005.7 1.2
25/10:30am 17.2 17.5 15.9 92 0.8 NNE 9 13 5 7 1006.1 1006.1 1.2
25/10:00am 16.5 16.7 15.7 95 0.5 NNE 9 13 5 7 1006.5 1006.5 1.0
25/09:30am 15.8 16.2 15.2 96 0.3 N 7 11 4 6 1006.9 1006.9 0.6
25/09:00am 15.5 15.4 14.9 96 0.3 NNE 9 11 5 6 1007.1 1007.1 1.8
25/08:30am 15.2 14.9 14.4 95 0.5 NNE 9 11 5 6 1007.5 1007.5 1.2
25/08:00am 15.1 15.3 14.1 94 0.6 NE 6 11 3 6 1007.1 1007.1 0.6
25/07:30am 15.0 14.6 14.0 94 0.6 NE 9 11 5 6 1007.1 1007.1 0.6
25/07:00am 15.1 15.2 14.0 93 0.6 NE 6 7 3 4 1007.3 1007.3 0.4
25/06:30am 15.1 15.0 14.0 93 0.6 NNW 7 9 4 5 1007.5 1007.5 0.0
25/06:00am 15.6 15.2 14.1 91 0.9 NNE 9 11 5 6 1007.3 1007.3 0.0
25/05:30am 15.9 13.3 13.9 88 1.1 SW 20 24 11 13 1007.5 1007.5 0.0
25/05:00am 16.3 13.9 12.8 80 1.9 W 17 26 9 14 1007.8 1007.8 0.0
25/04:30am 15.2 14.5 13.1 87 1.2 NW 9 11 5 6 1007.1 1007.1 0.0
25/04:00am 16.4 15.6 12.8 79 2.0 NE 9 11 5 6 1007.0 1007.0 0.0
25/03:30am 15.7 15.3 13.0 84 1.5 ENE 7 9 4 5 1007.3 1007.3 0.0
25/03:00am 15.1 14.9 13.5 90 0.9 NE 7 9 4 5 1008.0 1008.0 0.0
25/02:30am 13.9 14.8 12.8 93 0.6 CALM 0 0 0 0 1008.7 1008.6 0.0
25/02:00am 14.2 14.6 12.6 90 0.9 NE 2 6 1 3 1009.0 1008.9 0.0
25/01:30am 14.9 14.6 13.3 90 0.9 NE 7 11 4 6 1009.5 1009.4 0.0
25/01:00am 14.9 14.8 13.8 93 0.6 NE 7 11 4 6 1010.4 1010.3 0.0
25/12:30am 14.7 14.6 13.9 95 0.4 NNE 7 9 4 5 1011.0 1010.9 0.0
25/12:13am 14.5 14.4 14.0 97 0.3 NNE 7 9 4 5 1011.5 1011.4 0.0
25/12:00am 14.5 14.4 14.0 97 0.3 NNE 7 9 4 5 1011.7 1011.6 0.0
 
Date/Time
EST
Temp
°C
App
Temp
°C
Dew
Point
°C
Rel
Hum
%
Delta-T
°C
Wind Press
QNH
hPa
Press
MSL
hPa
Rain since
9am
mm
Dir  Spd
km/h
Gust
km/h
Spd
kts
Gust
kts
24/11:30pm 14.0 13.9 13.4 96 0.3 N 6 7 3 4 1012.2 1012.1 0.0
24/11:00pm 14.1 13.9 13.5 96 0.3 NE 7 9 4 5 1012.9 1012.8 0.0
24/10:30pm 14.5 14.1 14.0 97 0.3 NE 9 11 5 6 1013.5 1013.4 0.0
24/10:00pm 14.5 14.6 14.0 97 0.3 NNE 6 7 3 4 1013.8 1013.7 0.0
24/09:49pm 14.3 14.1 13.7 96 0.3 NE 7 7 4 4 1013.9 1013.8 0.0
24/09:30pm 13.3 12.9 12.5 95 0.4 NNE 6 7 3 4 1014.3 1014.2 0.0
24/09:16pm 13.6 13.3 12.8 95 0.4 N 6 7 3 4 1014.5 1014.4 0.0
24/09:00pm 14.1 14.0 13.3 95 0.4 N 6 7 3 4 1014.7 1014.6 0.0
24/08:49pm 14.2 14.1 13.2 94 0.6 ENE 6 7 3 4 1014.8 1014.7 0.0
24/08:30pm 15.0 14.9 14.0 94 0.6 E 7 9 4 5 1015.0 1014.9 0.0
24/08:15pm 15.3 16.7 14.5 95 0.5 CALM 0 0 0 0 1015.1 1015.0 0.0
24/08:00pm 14.6 15.7 13.6 94 0.6 CALM 0 0 0 0 1015.3 1015.2 0.0
24/07:56pm 14.6 15.7 13.5 93 0.6 CALM 0 0 0 0 1015.3 1015.2 0.0
24/07:30pm 14.9 16.0 13.6 92 0.7 CALM 0 0 0 0 1015.2 1015.1 0.0
24/07:00pm 15.6 15.8 14.8 95 0.5 SSE 7 9 4 5 1015.4 1015.3 0.0
24/06:30pm 15.4 15.1 13.4 88 1.1 SE 7 9 4 5 1015.4 1015.3 0.0
24/06:00pm 15.7 15.6 13.9 89 1.0 SSE 7 9 4 5 1015.3 1015.2 0.0
24/05:30pm 16.6 16.8 14.1 85 1.4 SSE 6 7 3 4 1015.4 1015.3 0.0
24/05:00pm 17.8 17.6 14.7 82 1.8 SE 9 11 5 6 1015.3 1015.2 0.0
24/04:30pm 18.3 18.0 14.4 78 2.3 SSE 9 13 5 7 1015.5 1015.4 0.0
24/04:00pm 18.4 17.8 14.5 78 2.3 SE 11 15 6 8 1015.6 1015.5 0.0
24/03:30pm 19.0 17.7 14.9 77 2.4 ESE 15 19 8 10 1015.7 1015.6 0.0
24/03:00pm 20.1 18.4 14.7 71 3.2 SSE 17 20 9 11 1015.5 1015.4 0.0
24/02:30pm 21.0 19.1 15.1 69 3.5 SE 19 22 10 12 1015.7 1015.6 0.0
24/02:00pm 23.5 23.2 14.5 57 5.3 SE 9 15 5 8 1016.0 1016.0 0.0
24/01:30pm 23.0 22.9 13.8 56 5.4 ESE 7 11 4 6 1016.3 1016.3 0.0
24/01:00pm 23.1 23.0 13.8 55 5.4 E 7 13 4 7 1016.8 1016.8 0.0
24/12:30pm 21.9 21.9 13.5 59 4.9 NE 6 11 3 6 1017.3 1017.3 0.0
24/12:00pm 21.9 22.0 14.5 63 4.3 N 7 13 4 7 1018.3 1018.3 0.0
24/11:30am 21.1 21.0 13.8 63 4.2 NNE 7 11 4 6 1018.9 1018.9 0.0
24/11:00am 19.9 19.8 14.0 69 3.4 WNW 7 15 4 8 1019.5 1019.5 0.0
24/10:30am 18.3 18.6 14.6 79 2.1 NE 6 7 3 4 1020.0 1020.0 0.0
24/10:00am 17.4 17.4 14.1 81 1.9 NE 7 9 4 5 1020.4 1020.4 0.0
24/09:30am 15.9 16.6 15.6 98 0.2 NNE 6 7 3 4 1020.8 1020.8 0.0
24/09:12am 15.2 16.4 15.0 99 0.1 NNE 2 7 1 4 1020.8 1020.8 0.0
24/09:08am 15.4 17.1 15.2 99 0.1 CALM 0 0 0 0 1020.9 1020.9 0.0
24/09:00am 14.4 15.4 14.2 99 0.1 NNW 2 6 1 3 1021.0 1021.0 0.2
24/08:30am 13.5 13.2 13.3 99 0.1 NW 7 11 4 6 1021.2 1021.2 0.2
24/08:00am 12.6 12.0 12.4 99 0.1 N 7 9 4 5 1021.1 1021.1 0.2
24/07:30am 11.9 12.4 11.7 99 0.1 CALM 0 0 0 0 1021.1 1021.1 0.2
24/07:00am 11.3 10.3 11.0 98 0.2 WNW 7 9 4 5 1021.2 1021.2 0.2
24/06:30am 11.4 10.6 11.1 98 0.2 N 6 7 3 4 1021.2 1021.2 0.2
24/06:11am 10.7 10.1 10.4 98 0.2 W 4 7 2 4 1021.2 1021.2 0.2
24/06:00am 11.5 11.9 11.2 98 0.2 CALM 0 4 0 2 1021.1 1021.1 0.2
24/05:37am 11.4 10.4 11.1 98 0.2 WSW 7 9 4 5 1021.2 1021.2 0.0
24/05:30am 11.3 9.9 11.0 98 0.2 WSW 9 11 5 6 1021.2 1021.2 0.0
24/05:00am 12.4 11.7 12.1 98 0.2 SW 7 9 4 5 1021.1 1021.1 0.0
24/04:30am 12.5 11.9 12.2 98 0.2 W 7 9 4 5 1021.0 1021.0 0.0
24/04:00am 12.5 11.5 12.2 98 0.2 SW 9 11 5 6 1020.8 1020.8 0.0
24/03:30am 12.4 11.7 12.1 98 0.2 SW 7 9 4 5 1020.9 1020.9 0.0
24/03:00am 12.7 12.3 12.4 98 0.2 NW 6 7 3 4 1021.0 1021.0 0.0
24/02:30am 13.2 12.7 12.7 97 0.3 NW 7 7 4 4 1021.3 1021.3 0.0
24/02:00am 14.7 15.0 14.4 98 0.2 N 6 6 3 3 1021.5 1021.5 0.0
24/01:30am 15.0 15.8 14.7 98 0.2 NNW 4 7 2 4 1021.8 1021.8 0.0
24/01:00am 13.9 15.0 13.4 97 0.3 CALM 0 0 0 0 1022.1 1022.1 0.0
24/12:53am 13.9 14.9 13.3 96 0.3 CALM 0 0 0 0 1022.1 1022.1 0.0
24/12:30am 15.1 16.6 14.6 97 0.3 CALM 0 0 0 0 1022.4 1022.4 0.0
24/12:00am 14.9 16.3 14.4 97 0.3 CALM 0 0 0 0 1022.8 1022.8 0.0
 
Date/Time
EST
Temp
°C
App
Temp
°C
Dew
Point
°C
Rel
Hum
%
Delta-T
°C
Wind Press
QNH
hPa
Press
MSL
hPa
Rain since
9am
mm
Dir  Spd
km/h
Gust
km/h
Spd
kts
Gust
kts
23/11:56pm 15.0 16.4 14.5 97 0.3 CALM 0 0 0 0 1022.8 1022.8 0.0
23/11:30pm 14.9 16.3 14.4 97 0.3 CALM 0 0 0 0 1023.0 1023.0 0.0
23/11:00pm 15.0 16.4 14.5 97 0.3 CALM 0 0 0 0 1023.3 1023.3 0.0
23/10:59pm 15.0 16.4 14.5 97 0.3 CALM 0 0 0 0 1023.3 1023.3 0.0
23/10:55pm 15.1 16.6 14.6 97 0.3 CALM 0 0 0 0 1023.3 1023.3 0.0
23/10:30pm 14.9 16.3 14.3 96 0.3 CALM 0 0 0 0 1023.6 1023.6 0.0
23/10:12pm 15.0 16.4 14.4 96 0.3 CALM 0 0 0 0 1023.7 1023.7 0.0
23/10:05pm 15.5 17.1 15.0 97 0.3 CALM 0 0 0 0 1023.8 1023.8 0.0
23/10:00pm 15.6 17.3 15.1 97 0.3 CALM 0 0 0 0 1023.8 1023.8 0.0
23/09:45pm 15.4 17.0 14.8 96 0.3 CALM 0 0 0 0 1023.9 1023.9 0.0
23/09:30pm 15.3 16.8 14.7 96 0.3 CALM 0 0 0 0 1023.9 1023.9 0.0
23/09:25pm 15.5 17.1 14.9 96 0.3 CALM 0 0 0 0 1023.9 1023.9 0.0
23/09:08pm 15.5 16.3 14.9 96 0.3 SSW 4 6 2 3 1023.9 1023.9 0.0
23/09:00pm 15.6 16.1 15.0 96 0.3 SSW 6 7 3 4 1023.9 1023.9 0.0
23/08:30pm 15.4 17.0 14.8 96 0.3 CALM 0 0 0 0 1023.7 1023.7 0.0
23/08:01pm 15.1 15.4 14.5 96 0.3 SSW 6 7 3 4 1023.7 1023.7 0.0
23/08:00pm 15.1 15.4 14.5 96 0.3 SSW 6 7 3 4 1023.7 1023.7 0.0
23/07:30pm 14.3 15.3 13.3 94 0.6 CALM 0 0 0 0 1023.4 1023.4 0.0
23/07:12pm 15.2 15.7 13.9 92 0.7 ESE 4 6 2 3 1023.2 1023.2 0.0
23/07:00pm 15.8 16.4 14.2 90 0.9 ESE 4 6 2 3 1023.2 1023.2 0.0
23/06:30pm 16.9 17.4 15.1 89 1.0 ESE 6 7 3 4 1023.1 1023.1 0.0
23/06:00pm 17.0 16.8 14.8 87 1.3 E 9 11 5 6 1022.9 1022.9 0.0
23/05:30pm 17.7 17.6 15.0 84 1.6 ESE 9 13 5 7 1022.8 1022.8 0.0
23/05:00pm 17.9 17.6 14.4 80 2.0 ESE 9 13 5 7 1022.4 1022.4 0.0
23/04:30pm 18.4 16.9 14.1 76 2.5 SE 15 20 8 11 1022.2 1022.2 0.0
23/04:00pm 19.2 16.9 14.0 72 3.0 SE 19 22 10 12 1022.0 1022.0 0.0
23/03:30pm 20.1 17.8 14.2 69 3.4 SE 19 22 10 12 1022.0 1022.0 0.0
23/03:00pm 20.8 19.1 14.7 68 3.6 SSE 17 22 9 12 1021.9 1021.9 0.0
23/02:30pm 21.3 19.1 14.5 65 4.0 SE 19 22 10 12 1021.9 1021.9 0.0
23/02:00pm 21.6 20.8 14.0 62 4.4 SSE 11 17 6 9 1022.0 1022.0 0.0
23/01:30pm 21.8 21.3 13.9 61 4.6 ESE 9 15 5 8 1022.2 1022.2 0.0
23/01:00pm 22.1 21.9 13.7 59 4.9 S 7 15 4 8 1022.6 1022.6 0.0
23/12:30pm 21.3 20.7 13.5 61 4.5 S 9 13 5 7 1022.9 1022.9 0.0
23/12:00pm 21.6 21.3 14.3 63 4.3 NE 9 11 5 6 1023.3 1023.3 0.0
23/11:30am 20.6 20.2 14.0 66 3.8 S 9 13 5 7 1023.7 1023.7 0.0
23/11:00am 20.3 19.7 13.5 65 3.9 SW 9 15 5 8 1024.1 1024.1 0.0
23/10:30am 19.9 19.6 14.5 71 3.1 W 9 17 5 9 1024.4 1024.4 0.0
23/10:00am 19.7 18.7 14.7 73 2.9 WNW 13 17 7 9 1024.5 1024.5 0.0
23/09:30am 18.5 17.4 14.2 76 2.5 NW 13 17 7 9 1024.6 1024.6 0.0
23/09:00am 17.5 16.3 14.0 80 2.0 NW 13 15 7 8 1024.7 1024.7 0.0
23/08:30am 16.1 14.6 13.2 83 1.6 NW 13 17 7 9 1024.7 1024.7 0.0
23/08:00am 14.6 12.5 12.5 87 1.1 NW 15 17 8 9 1024.5 1024.5 0.0
23/07:30am 13.0 10.7 11.7 92 0.7 NW 15 17 8 9 1024.2 1024.2 0.0
23/07:00am 12.8 11.2 11.4 91 0.7 NW 11 15 6 8 1024.1 1024.1 0.0
23/06:30am 12.7 10.3 11.4 92 0.7 WNW 15 17 8 9 1023.8 1023.8 0.0
23/06:00am 12.5 10.4 11.2 92 0.7 NW 13 15 7 8 1023.7 1023.7 0.0
23/05:30am 12.9 10.9 11.6 92 0.7 NW 13 15 7 8 1023.5 1023.5 0.0
23/05:00am 13.2 11.4 12.1 93 0.6 WNW 13 17 7 9 1023.1 1023.1 0.0
23/04:30am 13.3 11.5 12.0 92 0.7 WNW 13 15 7 8 1022.9 1022.9 0.0
23/04:00am 13.4 11.7 12.3 93 0.6 WNW 13 15 7 8 1022.9 1022.9 0.0
23/03:30am 13.4 12.0 12.3 93 0.6 WNW 11 15 6 8 1022.9 1022.9 0.0
23/03:00am 13.8 12.2 12.7 93 0.6 WNW 13 15 7 8 1022.9 1022.9 0.0
23/02:30am 14.4 13.4 13.3 93 0.6 WNW 11 15 6 8 1023.0 1023.0 0.0
23/02:00am 14.2 12.8 13.4 95 0.4 NW 13 15 7 8 1023.0 1023.0 0.0
23/01:30am 14.4 13.1 13.6 95 0.4 WNW 13 15 7 8 1023.1 1023.1 0.0
23/01:00am 14.0 13.8 13.1 94 0.5 NW 6 9 3 5 1023.0 1023.0 0.0
23/12:30am 14.1 15.0 13.0 93 0.6 CALM 0 0 0 0 1023.0 1023.0 0.0
23/12:00am 14.0 13.8 12.9 93 0.6 WNW 6 9 3 5 1023.1 1023.1 0.0
 
Date/Time
EST
Temp
°C
App
Temp
°C
Dew
Point
°C
Rel
Hum
%
Delta-T
°C
Wind Press
QNH
hPa
Press
MSL
hPa
Rain since
9am
mm
Dir  Spd
km/h
Gust
km/h
Spd
kts
Gust
kts
22/11:30pm 14.6 14.6 13.5 93 0.6 ENE 6 7 3 4 1023.1 1023.1 0.0
22/11:00pm 14.0 14.2 13.2 95 0.4 E 4 9 2 5 1023.2 1023.2 0.0
22/10:30pm 13.3 13.7 12.4 94 0.5 NE 2 6 1 3 1023.3 1023.3 0.0
22/10:00pm 13.3 12.9 12.5 95 0.4 NNE 6 7 3 4 1023.3 1023.3 0.0
22/09:30pm 13.2 13.9 12.1 93 0.6 CALM 0 0 0 0 1023.3 1023.3 0.0
22/09:00pm 13.5 13.2 11.6 88 1.0 NE 4 7 2 4 1023.3 1023.3 0.0
22/08:30pm 15.5 14.8 13.3 87 1.2 E 9 11 5 6 1023.1 1023.1 0.0
22/08:00pm 15.6 14.9 13.3 86 1.3 ENE 9 11 5 6 1023.0 1023.0 0.0
22/07:30pm 16.3 15.0 13.6 84 1.5 ENE 13 15 7 8 1022.8 1022.8 0.0
22/07:00pm 16.9 16.0 13.6 81 1.9 ENE 11 13 6 7 1022.9 1022.9 0.0

Other Formats:

Comma delimited format used in spreadsheet applications
http://www.bom.gov.au/fwo/IDV60801/IDV60801.94912.axf

JavaScript Object Notation format (JSON) in row-major order
http://www.bom.gov.au/fwo/IDV60801/IDV60801.94912.json